ナント の空港の天気 - METARとTAF

ナント空港 ( LFRS / NTE ) - フランス ナント
飛行場実況気象(Metar)
観測時間06/01 20:00 CEST (06/01 18:00 UTC)
風向・風速北東 5m/s
視程10km以上
天気現象
なし
気温27℃
湿度28%
気圧1015hPa
METARLFRS 011800Z AUTO 05009KT 010V070 CAVOK 27/07 Q1015 NOSIG
過去の天気等 Google飛行場航空写真 Wunderground天気予報

過去48時間のMETAR

飛行場予報(TAF)
発表時間: 6/01 19:00 CEST (6/01 17:00 UTC)
予報対象時間: 1日20時 CEST ~ 3日2時 CEST
風向・風速北東 5m/s
視程10km以上
なし
TAF LFRS 011700Z 0118/0224 04010KT CAVOK